sensor_id;sensor_type;location;lat;lon;timestamp;P1;durP1;ratioP1;P2;durP2;ratioP2
76059;SDS011;64759;52.220;5.170;2022-12-16T00:01:18;40.80;;;22.08;;
76059;SDS011;64759;52.220;5.170;2022-12-16T00:03:46;36.00;;;20.92;;
76059;SDS011;64759;52.220;5.170;2022-12-16T00:06:12;34.90;;;20.23;;
76059;SDS011;64759;52.220;5.170;2022-12-16T00:08:38;34.03;;;18.50;;
76059;SDS011;64759;52.220;5.170;2022-12-16T00:11:04;34.63;;;17.67;;
76059;SDS011;64759;52.220;5.170;2022-12-16T00:13:33;30.40;;;18.02;;
76059;SDS011;64759;52.220;5.170;2022-12-16T00:16:03;30.35;;;17.42;;
76059;SDS011;64759;52.220;5.170;2022-12-16T00:18:33;34.50;;;16.77;;
76059;SDS011;64759;52.220;5.170;2022-12-16T00:20:59;32.03;;;16.83;;
76059;SDS011;64759;52.220;5.170;2022-12-16T00:23:25;32.70;;;17.42;;
76059;SDS011;64759;52.220;5.170;2022-12-16T00:25:51;25.05;;;14.02;;
76059;SDS011;64759;52.220;5.170;2022-12-16T00:28:17;22.73;;;13.10;;
76059;SDS011;64759;52.220;5.170;2022-12-16T00:30:43;18.92;;;11.30;;
76059;SDS011;64759;52.220;5.170;2022-12-16T00:33:09;27.90;;;12.80;;
76059;SDS011;64759;52.220;5.170;2022-12-16T00:35:35;18.52;;;10.00;;
76059;SDS011;64759;52.220;5.170;2022-12-16T00:38:00;20.23;;;10.60;;
76059;SDS011;64759;52.220;5.170;2022-12-16T00:40:26;20.17;;;10.35;;
76059;SDS011;64759;52.220;5.170;2022-12-16T00:42:52;20.38;;;10.35;;
76059;SDS011;64759;52.220;5.170;2022-12-16T00:45:17;19.20;;;10.90;;
76059;SDS011;64759;52.220;5.170;2022-12-16T00:47:43;22.85;;;10.52;;
76059;SDS011;64759;52.220;5.170;2022-12-16T00:50:08;18.40;;;9.68;;
76059;SDS011;64759;52.220;5.170;2022-12-16T00:52:35;12.40;;;7.25;;
76059;SDS011;64759;52.220;5.170;2022-12-16T00:55:00;16.75;;;8.32;;
76059;SDS011;64759;52.220;5.170;2022-12-16T00:57:26;15.23;;;7.63;;
76059;SDS011;64759;52.220;5.170;2022-12-16T00:59:52;12.77;;;6.43;;
76059;SDS011;64759;52.220;5.170;2022-12-16T01:02:17;14.82;;;6.10;;
76059;SDS011;64759;52.220;5.170;2022-12-16T01:04:43;21.13;;;7.72;;
76059;SDS011;64759;52.220;5.170;2022-12-16T01:07:08;15.60;;;5.80;;
76059;SDS011;64759;52.220;5.170;2022-12-16T01:09:34;10.30;;;5.35;;
76059;SDS011;64759;52.220;5.170;2022-12-16T01:11:59;13.80;;;5.20;;
76059;SDS011;64759;52.220;5.170;2022-12-16T01:14:25;15.25;;;5.10;;
76059;SDS011;64759;52.220;5.170;2022-12-16T01:16:50;7.30;;;4.70;;
76059;SDS011;64759;52.220;5.170;2022-12-16T01:19:16;9.82;;;4.13;;
76059;SDS011;64759;52.220;5.170;2022-12-16T01:21:41;10.93;;;4.07;;
76059;SDS011;64759;52.220;5.170;2022-12-16T01:24:07;9.55;;;4.15;;
76059;SDS011;64759;52.220;5.170;2022-12-16T01:26:34;6.45;;;3.80;;
76059;SDS011;64759;52.220;5.170;2022-12-16T01:28:59;14.05;;;4.38;;
76059;SDS011;64759;52.220;5.170;2022-12-16T01:31:24;10.00;;;4.00;;
76059;SDS011;64759;52.220;5.170;2022-12-16T01:33:50;10.88;;;4.15;;
76059;SDS011;64759;52.220;5.170;2022-12-16T01:36:16;12.88;;;4.60;;
76059;SDS011;64759;52.220;5.170;2022-12-16T01:38:42;8.20;;;4.00;;
76059;SDS011;64759;52.220;5.170;2022-12-16T01:41:08;13.30;;;4.22;;
76059;SDS011;64759;52.220;5.170;2022-12-16T01:43:35;10.65;;;5.10;;
76059;SDS011;64759;52.220;5.170;2022-12-16T01:51:17;14.30;;;5.25;;
76059;SDS011;64759;52.220;5.170;2022-12-16T01:53:48;9.63;;;4.88;;
76059;SDS011;64759;52.220;5.170;2022-12-16T01:56:18;13.48;;;4.65;;
76059;SDS011;64759;52.220;5.170;2022-12-16T01:58:47;14.32;;;5.35;;
76059;SDS011;64759;52.220;5.170;2022-12-16T02:01:13;12.88;;;4.78;;
76059;SDS011;64759;52.220;5.170;2022-12-16T02:03:40;14.60;;;5.18;;
76059;SDS011;64759;52.220;5.170;2022-12-16T02:06:06;9.43;;;4.28;;
76059;SDS011;64759;52.220;5.170;2022-12-16T02:08:32;15.45;;;5.53;;
76059;SDS011;64759;52.220;5.170;2022-12-16T02:17:13;12.23;;;5.65;;
76059;SDS011;64759;52.220;5.170;2022-12-16T02:25:20;16.88;;;6.32;;
76059;SDS011;64759;52.220;5.170;2022-12-16T02:30:43;12.82;;;6.10;;
76059;SDS011;64759;52.220;5.170;2022-12-16T02:36:09;13.48;;;6.28;;
76059;SDS011;64759;52.220;5.170;2022-12-16T02:38:59;11.20;;;5.60;;
76059;SDS011;64759;52.220;5.170;2022-12-16T02:41:31;11.00;;;5.35;;
76059;SDS011;64759;52.220;5.170;2022-12-16T02:44:02;10.25;;;5.38;;
76059;SDS011;64759;52.220;5.170;2022-12-16T02:46:31;16.73;;;6.30;;
76059;SDS011;64759;52.220;5.170;2022-12-16T02:49:07;19.02;;;6.80;;
76059;SDS011;64759;52.220;5.170;2022-12-16T02:51:54;15.82;;;5.60;;
76059;SDS011;64759;52.220;5.170;2022-12-16T02:54:22;11.05;;;6.55;;
76059;SDS011;64759;52.220;5.170;2022-12-16T02:57:00;19.92;;;6.30;;
76059;SDS011;64759;52.220;5.170;2022-12-16T03:04:58;15.73;;;7.50;;
76059;SDS011;64759;52.220;5.170;2022-12-16T03:07:33;14.80;;;6.50;;
76059;SDS011;64759;52.220;5.170;2022-12-16T03:10:05;15.13;;;5.57;;
76059;SDS011;64759;52.220;5.170;2022-12-16T03:12:34;12.73;;;6.00;;
76059;SDS011;64759;52.220;5.170;2022-12-16T03:15:02;13.32;;;6.03;;
76059;SDS011;64759;52.220;5.170;2022-12-16T03:17:29;12.93;;;6.47;;
76059;SDS011;64759;52.220;5.170;2022-12-16T03:20:02;13.73;;;6.40;;
76059;SDS011;64759;52.220;5.170;2022-12-16T03:22:35;13.20;;;6.38;;
76059;SDS011;64759;52.220;5.170;2022-12-16T03:27:33;11.70;;;6.13;;
76059;SDS011;64759;52.220;5.170;2022-12-16T03:30:15;10.55;;;6.63;;
76059;SDS011;64759;52.220;5.170;2022-12-16T03:32:57;10.85;;;5.78;;
76059;SDS011;64759;52.220;5.170;2022-12-16T03:35:36;14.45;;;6.78;;
76059;SDS011;64759;52.220;5.170;2022-12-16T03:38:04;12.00;;;6.20;;
76059;SDS011;64759;52.220;5.170;2022-12-16T03:40:32;14.60;;;6.68;;
76059;SDS011;64759;52.220;5.170;2022-12-16T03:43:00;12.40;;;6.53;;
76059;SDS011;64759;52.220;5.170;2022-12-16T03:45:29;16.77;;;7.10;;
76059;SDS011;64759;52.220;5.170;2022-12-16T03:48:05;13.10;;;6.38;;
76059;SDS011;64759;52.220;5.170;2022-12-16T03:50:36;16.80;;;6.63;;
76059;SDS011;64759;52.220;5.170;2022-12-16T03:53:02;13.75;;;6.63;;
76059;SDS011;64759;52.220;5.170;2022-12-16T03:55:28;9.82;;;5.63;;
76059;SDS011;64759;52.220;5.170;2022-12-16T03:57:53;14.85;;;6.22;;
76059;SDS011;64759;52.220;5.170;2022-12-16T04:00:21;11.20;;;5.85;;
76059;SDS011;64759;52.220;5.170;2022-12-16T04:02:47;14.80;;;6.07;;
76059;SDS011;64759;52.220;5.170;2022-12-16T04:05:13;14.70;;;5.97;;
76059;SDS011;64759;52.220;5.170;2022-12-16T04:07:39;14.05;;;6.35;;
76059;SDS011;64759;52.220;5.170;2022-12-16T04:10:05;12.35;;;5.60;;
76059;SDS011;64759;52.220;5.170;2022-12-16T04:12:31;13.35;;;6.57;;
76059;SDS011;64759;52.220;5.170;2022-12-16T04:15:15;12.07;;;6.80;;
76059;SDS011;64759;52.220;5.170;2022-12-16T04:17:59;16.35;;;6.20;;
76059;SDS011;64759;52.220;5.170;2022-12-16T04:20:48;11.10;;;5.82;;
76059;SDS011;64759;52.220;5.170;2022-12-16T04:23:55;12.13;;;6.07;;
76059;SDS011;64759;52.220;5.170;2022-12-16T04:26:40;10.98;;;5.32;;
76059;SDS011;64759;52.220;5.170;2022-12-16T04:29:24;10.88;;;5.50;;
76059;SDS011;64759;52.220;5.170;2022-12-16T04:31:50;12.18;;;6.25;;
76059;SDS011;64759;52.220;5.170;2022-12-16T04:34:16;16.20;;;6.55;;
76059;SDS011;64759;52.220;5.170;2022-12-16T04:36:58;11.85;;;5.38;;
76059;SDS011;64759;52.220;5.170;2022-12-16T04:39:43;13.50;;;5.70;;
76059;SDS011;64759;52.220;5.170;2022-12-16T04:42:27;19.88;;;5.72;;
76059;SDS011;64759;52.220;5.170;2022-12-16T04:45:12;11.23;;;5.47;;
76059;SDS011;64759;52.220;5.170;2022-12-16T04:47:55;12.73;;;6.43;;
76059;SDS011;64759;52.220;5.170;2022-12-16T04:50:39;15.30;;;5.68;;
76059;SDS011;64759;52.220;5.170;2022-12-16T04:53:24;12.70;;;5.25;;
76059;SDS011;64759;52.220;5.170;2022-12-16T04:56:08;12.57;;;6.20;;
76059;SDS011;64759;52.220;5.170;2022-12-16T04:58:53;11.73;;;6.60;;
76059;SDS011;64759;52.220;5.170;2022-12-16T05:01:36;12.15;;;6.00;;
76059;SDS011;64759;52.220;5.170;2022-12-16T05:04:20;15.98;;;6.68;;
76059;SDS011;64759;52.220;5.170;2022-12-16T05:07:04;14.63;;;6.40;;
76059;SDS011;64759;52.220;5.170;2022-12-16T05:09:48;14.75;;;6.32;;
76059;SDS011;64759;52.220;5.170;2022-12-16T05:12:31;12.73;;;6.15;;
76059;SDS011;64759;52.220;5.170;2022-12-16T05:15:15;13.93;;;5.75;;
76059;SDS011;64759;52.220;5.170;2022-12-16T05:18:06;11.40;;;6.10;;
76059;SDS011;64759;52.220;5.170;2022-12-16T05:20:57;13.65;;;6.55;;
76059;SDS011;64759;52.220;5.170;2022-12-16T05:23:42;13.23;;;6.57;;
76059;SDS011;64759;52.220;5.170;2022-12-16T05:26:26;10.93;;;6.97;;
76059;SDS011;64759;52.220;5.170;2022-12-16T05:29:10;10.52;;;6.25;;
76059;SDS011;64759;52.220;5.170;2022-12-16T05:31:54;15.48;;;6.38;;
76059;SDS011;64759;52.220;5.170;2022-12-16T05:34:37;15.95;;;6.47;;
76059;SDS011;64759;52.220;5.170;2022-12-16T05:37:21;12.10;;;6.30;;
76059;SDS011;64759;52.220;5.170;2022-12-16T05:40:06;15.23;;;6.47;;
76059;SDS011;64759;52.220;5.170;2022-12-16T05:42:52;15.75;;;6.10;;
76059;SDS011;64759;52.220;5.170;2022-12-16T05:45:35;13.30;;;7.30;;
76059;SDS011;64759;52.220;5.170;2022-12-16T05:48:19;14.10;;;7.03;;
76059;SDS011;64759;52.220;5.170;2022-12-16T05:51:03;12.20;;;6.43;;
76059;SDS011;64759;52.220;5.170;2022-12-16T05:53:47;11.32;;;6.28;;
76059;SDS011;64759;52.220;5.170;2022-12-16T05:56:31;12.65;;;6.25;;
76059;SDS011;64759;52.220;5.170;2022-12-16T05:59:15;14.10;;;7.45;;
76059;SDS011;64759;52.220;5.170;2022-12-16T06:01:59;14.05;;;7.05;;
76059;SDS011;64759;52.220;5.170;2022-12-16T06:05:02;12.52;;;7.00;;
76059;SDS011;64759;52.220;5.170;2022-12-16T06:07:50;16.77;;;6.43;;
76059;SDS011;64759;52.220;5.170;2022-12-16T06:10:35;11.82;;;6.80;;
76059;SDS011;64759;52.220;5.170;2022-12-16T06:13:18;15.85;;;7.20;;
76059;SDS011;64759;52.220;5.170;2022-12-16T06:16:02;11.75;;;6.50;;
76059;SDS011;64759;52.220;5.170;2022-12-16T06:18:46;13.05;;;6.55;;
76059;SDS011;64759;52.220;5.170;2022-12-16T06:21:30;11.20;;;6.07;;
76059;SDS011;64759;52.220;5.170;2022-12-16T06:24:14;13.25;;;5.95;;
76059;SDS011;64759;52.220;5.170;2022-12-16T06:26:58;12.23;;;5.72;;
76059;SDS011;64759;52.220;5.170;2022-12-16T06:29:41;14.15;;;6.65;;
76059;SDS011;64759;52.220;5.170;2022-12-16T06:32:25;18.30;;;6.22;;
76059;SDS011;64759;52.220;5.170;2022-12-16T06:35:09;13.35;;;6.25;;
76059;SDS011;64759;52.220;5.170;2022-12-16T06:37:53;10.90;;;4.45;;
76059;SDS011;64759;52.220;5.170;2022-12-16T06:40:37;11.02;;;5.18;;
76059;SDS011;64759;52.220;5.170;2022-12-16T06:43:20;13.48;;;5.25;;
76059;SDS011;64759;52.220;5.170;2022-12-16T06:46:04;11.93;;;5.00;;
76059;SDS011;64759;52.220;5.170;2022-12-16T06:48:48;11.55;;;4.97;;
76059;SDS011;64759;52.220;5.170;2022-12-16T06:51:32;14.40;;;5.03;;
76059;SDS011;64759;52.220;5.170;2022-12-16T06:54:15;15.57;;;5.10;;
76059;SDS011;64759;52.220;5.170;2022-12-16T06:56:59;9.30;;;4.45;;
76059;SDS011;64759;52.220;5.170;2022-12-16T06:59:43;11.38;;;4.60;;
76059;SDS011;64759;52.220;5.170;2022-12-16T07:02:27;17.50;;;5.07;;
76059;SDS011;64759;52.220;5.170;2022-12-16T07:05:11;9.57;;;5.03;;
76059;SDS011;64759;52.220;5.170;2022-12-16T07:07:55;8.45;;;3.90;;
76059;SDS011;64759;52.220;5.170;2022-12-16T07:10:39;10.85;;;3.88;;
76059;SDS011;64759;52.220;5.170;2022-12-16T07:13:23;11.88;;;4.30;;
76059;SDS011;64759;52.220;5.170;2022-12-16T07:16:07;9.95;;;4.35;;
76059;SDS011;64759;52.220;5.170;2022-12-16T07:19:05;8.90;;;4.13;;
76059;SDS011;64759;52.220;5.170;2022-12-16T07:21:49;17.15;;;4.47;;
76059;SDS011;64759;52.220;5.170;2022-12-16T07:24:33;14.15;;;4.60;;
76059;SDS011;64759;52.220;5.170;2022-12-16T07:27:17;12.77;;;4.85;;
76059;SDS011;64759;52.220;5.170;2022-12-16T07:30:01;10.57;;;4.22;;
76059;SDS011;64759;52.220;5.170;2022-12-16T07:32:48;12.45;;;4.30;;
76059;SDS011;64759;52.220;5.170;2022-12-16T07:35:32;9.95;;;3.92;;
76059;SDS011;64759;52.220;5.170;2022-12-16T07:38:16;11.98;;;3.85;;
76059;SDS011;64759;52.220;5.170;2022-12-16T07:41:00;12.70;;;4.22;;
76059;SDS011;64759;52.220;5.170;2022-12-16T07:43:44;15.93;;;4.10;;
76059;SDS011;64759;52.220;5.170;2022-12-16T07:46:28;11.90;;;3.58;;
76059;SDS011;64759;52.220;5.170;2022-12-16T07:49:11;14.30;;;3.38;;
76059;SDS011;64759;52.220;5.170;2022-12-16T07:51:55;16.20;;;4.40;;
76059;SDS011;64759;52.220;5.170;2022-12-16T07:54:39;9.50;;;3.35;;
76059;SDS011;64759;52.220;5.170;2022-12-16T07:57:23;15.25;;;4.00;;
76059;SDS011;64759;52.220;5.170;2022-12-16T08:00:17;11.48;;;4.40;;
76059;SDS011;64759;52.220;5.170;2022-12-16T08:03:15;7.45;;;3.72;;
76059;SDS011;64759;52.220;5.170;2022-12-16T08:05:58;11.73;;;3.67;;
76059;SDS011;64759;52.220;5.170;2022-12-16T08:08:42;9.23;;;3.53;;
76059;SDS011;64759;52.220;5.170;2022-12-16T08:11:26;10.48;;;4.15;;
76059;SDS011;64759;52.220;5.170;2022-12-16T08:14:10;11.23;;;3.63;;
76059;SDS011;64759;52.220;5.170;2022-12-16T08:16:54;11.38;;;4.13;;
76059;SDS011;64759;52.220;5.170;2022-12-16T08:19:38;9.68;;;3.35;;
76059;SDS011;64759;52.220;5.170;2022-12-16T08:22:22;9.57;;;3.75;;
76059;SDS011;64759;52.220;5.170;2022-12-16T08:25:06;11.65;;;4.45;;
76059;SDS011;64759;52.220;5.170;2022-12-16T08:27:56;8.05;;;3.67;;
76059;SDS011;64759;52.220;5.170;2022-12-16T08:30:40;12.90;;;4.30;;
76059;SDS011;64759;52.220;5.170;2022-12-16T08:33:24;15.80;;;4.38;;
76059;SDS011;64759;52.220;5.170;2022-12-16T08:36:09;8.80;;;3.58;;
76059;SDS011;64759;52.220;5.170;2022-12-16T08:38:53;9.45;;;3.88;;
76059;SDS011;64759;52.220;5.170;2022-12-16T08:41:36;8.57;;;4.05;;
76059;SDS011;64759;52.220;5.170;2022-12-16T08:44:20;11.30;;;3.80;;
76059;SDS011;64759;52.220;5.170;2022-12-16T08:47:04;11.30;;;5.28;;
76059;SDS011;64759;52.220;5.170;2022-12-16T08:49:50;10.23;;;4.53;;
76059;SDS011;64759;52.220;5.170;2022-12-16T08:52:34;8.05;;;3.42;;
76059;SDS011;64759;52.220;5.170;2022-12-16T08:55:18;12.48;;;4.38;;
76059;SDS011;64759;52.220;5.170;2022-12-16T08:58:02;11.32;;;3.95;;
76059;SDS011;64759;52.220;5.170;2022-12-16T09:00:46;10.82;;;3.67;;
76059;SDS011;64759;52.220;5.170;2022-12-16T09:03:29;9.70;;;3.42;;
76059;SDS011;64759;52.220;5.170;2022-12-16T09:06:13;12.80;;;3.00;;
76059;SDS011;64759;52.220;5.170;2022-12-16T09:08:57;13.30;;;3.72;;
76059;SDS011;64759;52.220;5.170;2022-12-16T09:11:41;8.73;;;2.90;;
76059;SDS011;64759;52.220;5.170;2022-12-16T09:14:24;8.27;;;2.70;;
76059;SDS011;64759;52.220;5.170;2022-12-16T09:17:10;12.15;;;2.70;;
76059;SDS011;64759;52.220;5.170;2022-12-16T09:19:54;12.57;;;2.88;;
76059;SDS011;64759;52.220;5.170;2022-12-16T09:22:38;11.40;;;3.40;;
76059;SDS011;64759;52.220;5.170;2022-12-16T09:25:22;7.50;;;2.97;;
76059;SDS011;64759;52.220;5.170;2022-12-16T09:28:05;12.43;;;2.88;;
76059;SDS011;64759;52.220;5.170;2022-12-16T09:30:49;14.43;;;4.13;;
76059;SDS011;64759;52.220;5.170;2022-12-16T09:33:33;11.48;;;3.28;;
76059;SDS011;64759;52.220;5.170;2022-12-16T09:36:16;8.80;;;2.78;;
76059;SDS011;64759;52.220;5.170;2022-12-16T09:39:01;12.85;;;3.45;;
76059;SDS011;64759;52.220;5.170;2022-12-16T09:41:54;5.78;;;2.97;;
76059;SDS011;64759;52.220;5.170;2022-12-16T09:50:32;9.63;;;2.75;;
76059;SDS011;64759;52.220;5.170;2022-12-16T09:53:21;10.77;;;4.05;;
76059;SDS011;64759;52.220;5.170;2022-12-16T09:56:06;9.32;;;3.63;;
76059;SDS011;64759;52.220;5.170;2022-12-16T09:59:00;10.32;;;3.63;;
76059;SDS011;64759;52.220;5.170;2022-12-16T10:01:45;6.97;;;2.65;;
76059;SDS011;64759;52.220;5.170;2022-12-16T10:04:29;15.60;;;3.70;;
76059;SDS011;64759;52.220;5.170;2022-12-16T10:07:17;11.60;;;3.85;;
76059;SDS011;64759;52.220;5.170;2022-12-16T10:16:07;8.73;;;3.25;;
76059;SDS011;64759;52.220;5.170;2022-12-16T10:25:54;9.45;;;3.10;;
76059;SDS011;64759;52.220;5.170;2022-12-16T10:28:46;9.00;;;3.42;;
76059;SDS011;64759;52.220;5.170;2022-12-16T10:31:32;7.47;;;3.15;;
76059;SDS011;64759;52.220;5.170;2022-12-16T10:34:19;9.30;;;3.55;;
76059;SDS011;64759;52.220;5.170;2022-12-16T10:37:10;9.60;;;4.13;;
76059;SDS011;64759;52.220;5.170;2022-12-16T10:39:59;10.10;;;3.78;;
76059;SDS011;64759;52.220;5.170;2022-12-16T10:42:49;9.43;;;4.22;;
76059;SDS011;64759;52.220;5.170;2022-12-16T10:45:42;10.48;;;4.72;;
76059;SDS011;64759;52.220;5.170;2022-12-16T10:48:29;7.97;;;4.15;;
76059;SDS011;64759;52.220;5.170;2022-12-16T10:51:17;10.43;;;4.65;;
76059;SDS011;64759;52.220;5.170;2022-12-16T10:54:15;8.60;;;4.32;;
76059;SDS011;64759;52.220;5.170;2022-12-16T10:57:11;8.07;;;4.67;;
76059;SDS011;64759;52.220;5.170;2022-12-16T11:03:24;19.90;;;5.57;;
76059;SDS011;64759;52.220;5.170;2022-12-16T11:06:15;12.80;;;5.82;;
76059;SDS011;64759;52.220;5.170;2022-12-16T11:15:16;13.23;;;5.75;;
76059;SDS011;64759;52.220;5.170;2022-12-16T11:18:04;9.13;;;6.22;;
76059;SDS011;64759;52.220;5.170;2022-12-16T11:24:03;15.85;;;7.38;;
76059;SDS011;64759;52.220;5.170;2022-12-16T11:27:03;10.82;;;7.35;;
76059;SDS011;64759;52.220;5.170;2022-12-16T11:32:34;20.05;;;9.35;;
76059;SDS011;64759;52.220;5.170;2022-12-16T11:35:21;13.63;;;8.70;;
76059;SDS011;64759;52.220;5.170;2022-12-16T11:38:15;14.55;;;9.25;;
76059;SDS011;64759;52.220;5.170;2022-12-16T11:41:04;14.50;;;9.60;;
76059;SDS011;64759;52.220;5.170;2022-12-16T11:43:50;18.38;;;11.93;;
76059;SDS011;64759;52.220;5.170;2022-12-16T11:46:35;15.98;;;10.88;;
76059;SDS011;64759;52.220;5.170;2022-12-16T11:49:22;16.88;;;11.45;;
76059;SDS011;64759;52.220;5.170;2022-12-16T11:52:13;15.80;;;11.20;;
76059;SDS011;64759;52.220;5.170;2022-12-16T11:55:01;17.90;;;11.40;;
76059;SDS011;64759;52.220;5.170;2022-12-16T11:57:51;16.75;;;11.40;;
76059;SDS011;64759;52.220;5.170;2022-12-16T12:00:48;15.43;;;10.73;;
76059;SDS011;64759;52.220;5.170;2022-12-16T12:03:42;19.00;;;12.55;;
76059;SDS011;64759;52.220;5.170;2022-12-16T12:06:35;15.77;;;11.05;;
76059;SDS011;64759;52.220;5.170;2022-12-16T12:09:31;16.80;;;11.00;;
76059;SDS011;64759;52.220;5.170;2022-12-16T12:12:27;17.02;;;10.07;;
76059;SDS011;64759;52.220;5.170;2022-12-16T12:18:04;19.38;;;11.57;;
76059;SDS011;64759;52.220;5.170;2022-12-16T12:21:12;17.98;;;11.30;;
76059;SDS011;64759;52.220;5.170;2022-12-16T12:24:07;13.98;;;10.50;;
76059;SDS011;64759;52.220;5.170;2022-12-16T12:27:05;19.63;;;12.18;;
76059;SDS011;64759;52.220;5.170;2022-12-16T12:35:55;18.20;;;11.75;;
76059;SDS011;64759;52.220;5.170;2022-12-16T12:39:02;16.48;;;10.45;;
76059;SDS011;64759;52.220;5.170;2022-12-16T12:42:22;20.05;;;11.93;;
76059;SDS011;64759;52.220;5.170;2022-12-16T12:45:33;19.02;;;12.68;;
76059;SDS011;64759;52.220;5.170;2022-12-16T12:48:23;17.65;;;12.65;;
76059;SDS011;64759;52.220;5.170;2022-12-16T12:57:25;23.40;;;12.95;;
76059;SDS011;64759;52.220;5.170;2022-12-16T13:06:12;25.38;;;12.07;;
76059;SDS011;64759;52.220;5.170;2022-12-16T13:08:58;22.92;;;12.23;;
76059;SDS011;64759;52.220;5.170;2022-12-16T13:20:45;16.95;;;11.77;;
76059;SDS011;64759;52.220;5.170;2022-12-16T13:23:34;20.60;;;11.70;;
76059;SDS011;64759;52.220;5.170;2022-12-16T13:26:20;23.42;;;14.60;;
76059;SDS011;64759;52.220;5.170;2022-12-16T13:35:36;18.17;;;12.32;;
76059;SDS011;64759;52.220;5.170;2022-12-16T13:41:01;19.70;;;12.77;;
76059;SDS011;64759;52.220;5.170;2022-12-16T13:43:52;23.00;;;12.57;;
76059;SDS011;64759;52.220;5.170;2022-12-16T13:46:47;19.77;;;12.68;;
76059;SDS011;64759;52.220;5.170;2022-12-16T13:55:17;22.05;;;13.13;;
76059;SDS011;64759;52.220;5.170;2022-12-16T13:58:06;22.60;;;12.60;;
76059;SDS011;64759;52.220;5.170;2022-12-16T14:01:04;23.92;;;12.32;;
76059;SDS011;64759;52.220;5.170;2022-12-16T14:03:54;19.92;;;12.25;;
76059;SDS011;64759;52.220;5.170;2022-12-16T14:06:39;25.52;;;14.27;;
76059;SDS011;64759;52.220;5.170;2022-12-16T14:09:36;18.02;;;12.73;;
76059;SDS011;64759;52.220;5.170;2022-12-16T14:15:16;20.38;;;13.82;;
76059;SDS011;64759;52.220;5.170;2022-12-16T14:18:17;20.60;;;12.80;;
76059;SDS011;64759;52.220;5.170;2022-12-16T14:21:14;25.27;;;13.95;;
76059;SDS011;64759;52.220;5.170;2022-12-16T14:24:09;21.60;;;12.93;;
76059;SDS011;64759;52.220;5.170;2022-12-16T14:27:12;24.70;;;12.43;;
76059;SDS011;64759;52.220;5.170;2022-12-16T14:30:15;19.88;;;11.73;;
76059;SDS011;64759;52.220;5.170;2022-12-16T14:36:21;23.88;;;12.45;;
76059;SDS011;64759;52.220;5.170;2022-12-16T14:39:10;23.48;;;11.48;;
76059;SDS011;64759;52.220;5.170;2022-12-16T14:42:38;21.58;;;10.98;;
76059;SDS011;64759;52.220;5.170;2022-12-16T14:57:01;18.13;;;10.95;;
76059;SDS011;64759;52.220;5.170;2022-12-16T14:59:45;19.13;;;9.98;;
76059;SDS011;64759;52.220;5.170;2022-12-16T15:02:30;18.88;;;10.00;;
76059;SDS011;64759;52.220;5.170;2022-12-16T15:05:20;18.20;;;9.43;;
76059;SDS011;64759;52.220;5.170;2022-12-16T15:08:11;15.77;;;8.65;;
76059;SDS011;64759;52.220;5.170;2022-12-16T15:10:54;14.68;;;8.98;;
76059;SDS011;64759;52.220;5.170;2022-12-16T15:13:39;17.42;;;9.20;;
76059;SDS011;64759;52.220;5.170;2022-12-16T15:16:24;20.70;;;9.68;;
76059;SDS011;64759;52.220;5.170;2022-12-16T15:19:17;18.83;;;9.50;;
76059;SDS011;64759;52.220;5.170;2022-12-16T15:22:05;15.40;;;8.60;;
76059;SDS011;64759;52.220;5.170;2022-12-16T15:24:54;15.47;;;8.23;;
76059;SDS011;64759;52.220;5.170;2022-12-16T15:27:38;13.45;;;8.55;;
76059;SDS011;64759;52.220;5.170;2022-12-16T15:33:31;14.65;;;8.05;;
76059;SDS011;64759;52.220;5.170;2022-12-16T15:36:32;15.88;;;9.52;;
76059;SDS011;64759;52.220;5.170;2022-12-16T15:42:24;14.38;;;8.52;;
76059;SDS011;64759;52.220;5.170;2022-12-16T15:45:23;23.48;;;12.02;;
76059;SDS011;64759;52.220;5.170;2022-12-16T15:48:19;24.75;;;11.50;;
76059;SDS011;64759;52.220;5.170;2022-12-16T15:51:31;16.63;;;11.05;;
76059;SDS011;64759;52.220;5.170;2022-12-16T15:54:32;21.40;;;11.68;;
76059;SDS011;64759;52.220;5.170;2022-12-16T15:57:24;28.15;;;12.20;;
76059;SDS011;64759;52.220;5.170;2022-12-16T16:03:20;19.63;;;10.43;;
76059;SDS011;64759;52.220;5.170;2022-12-16T16:06:15;17.67;;;10.43;;
76059;SDS011;64759;52.220;5.170;2022-12-16T16:12:09;23.50;;;11.88;;
76059;SDS011;64759;52.220;5.170;2022-12-16T16:14:54;20.70;;;11.25;;
76059;SDS011;64759;52.220;5.170;2022-12-16T16:17:38;23.48;;;11.55;;
76059;SDS011;64759;52.220;5.170;2022-12-16T16:20:22;16.70;;;10.13;;
76059;SDS011;64759;52.220;5.170;2022-12-16T16:23:07;20.30;;;12.60;;
76059;SDS011;64759;52.220;5.170;2022-12-16T16:26:12;18.67;;;11.23;;
76059;SDS011;64759;52.220;5.170;2022-12-16T16:28:59;18.13;;;10.77;;
76059;SDS011;64759;52.220;5.170;2022-12-16T16:31:44;24.60;;;12.18;;
76059;SDS011;64759;52.220;5.170;2022-12-16T16:34:28;20.08;;;10.73;;
76059;SDS011;64759;52.220;5.170;2022-12-16T16:37:16;23.73;;;11.95;;
76059;SDS011;64759;52.220;5.170;2022-12-16T16:40:09;26.08;;;13.65;;
76059;SDS011;64759;52.220;5.170;2022-12-16T16:43:00;19.88;;;11.57;;
76059;SDS011;64759;52.220;5.170;2022-12-16T16:45:44;22.33;;;13.15;;
76059;SDS011;64759;52.220;5.170;2022-12-16T16:48:35;23.20;;;12.90;;
76059;SDS011;64759;52.220;5.170;2022-12-16T16:51:19;23.42;;;12.32;;
76059;SDS011;64759;52.220;5.170;2022-12-16T16:54:03;22.23;;;12.40;;
76059;SDS011;64759;52.220;5.170;2022-12-16T16:56:47;21.02;;;12.73;;
76059;SDS011;64759;52.220;5.170;2022-12-16T16:59:31;26.15;;;13.38;;
76059;SDS011;64759;52.220;5.170;2022-12-16T17:02:16;23.08;;;13.90;;
76059;SDS011;64759;52.220;5.170;2022-12-16T17:05:02;20.73;;;13.75;;
76059;SDS011;64759;52.220;5.170;2022-12-16T17:07:47;26.17;;;13.77;;
76059;SDS011;64759;52.220;5.170;2022-12-16T17:10:31;84.43;;;43.00;;
76059;SDS011;64759;52.220;5.170;2022-12-16T17:13:14;40.25;;;21.70;;
76059;SDS011;64759;52.220;5.170;2022-12-16T17:15:58;28.48;;;15.75;;
76059;SDS011;64759;52.220;5.170;2022-12-16T17:18:42;36.78;;;21.25;;
76059;SDS011;64759;52.220;5.170;2022-12-16T17:21:26;28.65;;;16.85;;
76059;SDS011;64759;52.220;5.170;2022-12-16T17:24:10;31.67;;;17.45;;
76059;SDS011;64759;52.220;5.170;2022-12-16T17:26:54;36.83;;;18.67;;
76059;SDS011;64759;52.220;5.170;2022-12-16T17:29:37;36.58;;;21.23;;
76059;SDS011;64759;52.220;5.170;2022-12-16T17:32:21;44.38;;;24.25;;
76059;SDS011;64759;52.220;5.170;2022-12-16T17:35:05;41.65;;;23.88;;
76059;SDS011;64759;52.220;5.170;2022-12-16T17:37:50;47.00;;;27.10;;
76059;SDS011;64759;52.220;5.170;2022-12-16T17:40:34;47.03;;;25.15;;
76059;SDS011;64759;52.220;5.170;2022-12-16T17:43:17;53.97;;;27.10;;
76059;SDS011;64759;52.220;5.170;2022-12-16T17:46:03;50.17;;;26.90;;
76059;SDS011;64759;52.220;5.170;2022-12-16T17:48:49;50.28;;;29.30;;
76059;SDS011;64759;52.220;5.170;2022-12-16T17:51:36;52.15;;;28.63;;
76059;SDS011;64759;52.220;5.170;2022-12-16T17:54:24;51.40;;;28.05;;
76059;SDS011;64759;52.220;5.170;2022-12-16T17:57:08;53.83;;;28.45;;
76059;SDS011;64759;52.220;5.170;2022-12-16T17:59:53;47.88;;;27.83;;
76059;SDS011;64759;52.220;5.170;2022-12-16T18:02:40;49.50;;;27.05;;
76059;SDS011;64759;52.220;5.170;2022-12-16T18:05:24;47.45;;;26.92;;
76059;SDS011;64759;52.220;5.170;2022-12-16T18:08:09;63.22;;;33.83;;
76059;SDS011;64759;52.220;5.170;2022-12-16T18:10:54;53.20;;;29.17;;
76059;SDS011;64759;52.220;5.170;2022-12-16T18:13:39;49.25;;;28.13;;
76059;SDS011;64759;52.220;5.170;2022-12-16T18:16:24;44.60;;;27.90;;
76059;SDS011;64759;52.220;5.170;2022-12-16T18:19:11;58.67;;;32.67;;
76059;SDS011;64759;52.220;5.170;2022-12-16T18:21:56;60.95;;;34.53;;